PIMOHWEATHER Station Historical Data
Daily Summary for March 12, 2020 Units:  Metric    English   Both
Daily Weekly Monthly Yearly
  High: Low: Average:
Temperature: 36.0 °C 26.0 °C 30.7 °C
Dew Point: 24.0 °C 21.0 °C 22.2 °C
Humidity: 74% 46% 62%
Wind Speed: 33km/h 0km/h 10km/h
Wind Gust: 40km/h - -
Wind- - ESE
Pressure: 1014.2 hPa 1010.5 hPa -
Precipitation: 0.00 mm    
 
 
Tabular Data for March 12, 2020
Time Temperature Dew Point Pressure Wind Wind Speed Wind Gust Humidity Rainfall Rate (Hourly) solar
00:04 28.0 °C 23.0 °C 1012.5 hPa ESE 13 km/h 16 km/h 72% 0.00 mm 0.00 W/m2
00:09 28.0 °C 23.0 °C 1012.5 hPa ESE 12 km/h 16 km/h 72% 0.00 mm 0.00 W/m2
00:14 28.0 °C 23.0 °C 1012.5 hPa ESE 14 km/h 20 km/h 72% 0.00 mm 0.00 W/m2
00:19 28.0 °C 23.0 °C 1012.2 hPa East 10 km/h 12 km/h 72% 0.00 mm 0.00 W/m2
00:24 28.0 °C 23.0 °C 1012.2 hPa SE 9 km/h 12 km/h 72% 0.00 mm 0.00 W/m2
00:29 28.0 °C 23.0 °C 1012.2 hPa East 11 km/h 16 km/h 73% 0.00 mm 0.00 W/m2
00:34 28.0 °C 23.0 °C 1012.2 hPa East 10 km/h 16 km/h 73% 0.00 mm 0.00 W/m2
00:39 28.0 °C 23.0 °C 1012.2 hPa ESE 10 km/h 16 km/h 73% 0.00 mm 0.00 W/m2
00:44 28.0 °C 23.0 °C 1012.2 hPa SE 10 km/h 12 km/h 73% 0.00 mm 0.00 W/m2
00:49 28.0 °C 23.0 °C 1012.2 hPa ESE 7 km/h 12 km/h 73% 0.00 mm 0.00 W/m2
00:54 28.0 °C 23.0 °C 1011.9 hPa East 10 km/h 12 km/h 73% 0.00 mm 0.00 W/m2
00:59 28.0 °C 23.0 °C 1012.2 hPa ESE 17 km/h 24 km/h 73% 0.00 mm 0.00 W/m2
01:04 28.0 °C 23.0 °C 1011.9 hPa ENE 16 km/h 20 km/h 73% 0.00 mm 0.00 W/m2
01:09 28.0 °C 23.0 °C 1011.9 hPa ESE 13 km/h 16 km/h 73% 0.00 mm 0.00 W/m2
01:14 28.0 °C 23.0 °C 1011.9 hPa East 8 km/h 12 km/h 73% 0.00 mm 0.00 W/m2
01:19 28.0 °C 22.0 °C 1011.9 hPa East 14 km/h 16 km/h 72% 0.00 mm 0.00 W/m2
01:24 28.0 °C 22.0 °C 1011.9 hPa ESE 10 km/h 12 km/h 72% 0.00 mm 0.00 W/m2
01:29 28.0 °C 22.0 °C 1011.9 hPa ESE 11 km/h 16 km/h 72% 0.00 mm 0.00 W/m2
01:34 28.0 °C 22.0 °C 1011.5 hPa East 9 km/h 16 km/h 72% 0.00 mm 0.00 W/m2
01:39 28.0 °C 22.0 °C 1011.5 hPa NE 9 km/h 12 km/h 72% 0.00 mm 0.00 W/m2
01:44 28.0 °C 22.0 °C 1011.5 hPa ESE 8 km/h 12 km/h 71% 0.00 mm 0.00 W/m2
01:49 28.0 °C 22.0 °C 1011.5 hPa ESE 6 km/h 12 km/h 71% 0.00 mm 0.00 W/m2
01:54 28.0 °C 22.0 °C 1011.5 hPa East 8 km/h 12 km/h 71% 0.00 mm 0.00 W/m2
01:59 28.0 °C 22.0 °C 1011.5 hPa SE 12 km/h 20 km/h 71% 0.00 mm 0.00 W/m2
02:04 28.0 °C 22.0 °C 1011.5 hPa SE 6 km/h 12 km/h 71% 0.00 mm 0.00 W/m2
02:09 28.0 °C 22.0 °C 1011.5 hPa ESE 12 km/h 16 km/h 71% 0.00 mm 0.00 W/m2
02:14 28.0 °C 22.0 °C 1011.5 hPa ESE 12 km/h 16 km/h 71% 0.00 mm 0.00 W/m2
02:19 28.0 °C 22.0 °C 1011.5 hPa ESE 12 km/h 16 km/h 71% 0.00 mm 0.00 W/m2
02:24 28.0 °C 22.0 °C 1011.5 hPa ESE 10 km/h 12 km/h 71% 0.00 mm 0.00 W/m2
02:29 28.0 °C 22.0 °C 1011.2 hPa ESE 11 km/h 16 km/h 71% 0.00 mm 0.00 W/m2
02:34 28.0 °C 22.0 °C 1011.2 hPa NW 7 km/h 12 km/h 71% 0.00 mm 0.00 W/m2
02:39 28.0 °C 22.0 °C 1011.2 hPa East 7 km/h 12 km/h 72% 0.00 mm 0.00 W/m2
02:44 28.0 °C 22.0 °C 1011.5 hPa ESE 6 km/h 12 km/h 72% 0.00 mm 0.00 W/m2
02:49 28.0 °C 22.0 °C 1011.5 hPa SE 5 km/h 8 km/h 72% 0.00 mm 0.00 W/m2
02:54 27.0 °C 22.0 °C 1011.2 hPa ESE 7 km/h 8 km/h 72% 0.00 mm 0.00 W/m2
02:59 27.0 °C 22.0 °C 1011.2 hPa ESE 6 km/h 8 km/h 72% 0.00 mm 0.00 W/m2
03:04 27.0 °C 22.0 °C 1011.2 hPa ESE 8 km/h 8 km/h 72% 0.00 mm 0.00 W/m2
03:09 27.0 °C 22.0 °C 1011.2 hPa SE 5 km/h 8 km/h 72% 0.00 mm 0.00 W/m2
03:14 27.0 °C 22.0 °C 1011.2 hPa East 5 km/h 8 km/h 72% 0.00 mm 0.00 W/m2
03:19 27.0 °C 22.0 °C 1011.2 hPa SE 7 km/h 8 km/h 72% 0.00 mm 0.00 W/m2
03:24 27.0 °C 22.0 °C 1011.2 hPa ESE 9 km/h 12 km/h 72% 0.00 mm 0.00 W/m2
03:29 27.0 °C 22.0 °C 1011.2 hPa ESE 9 km/h 12 km/h 72% 0.00 mm 0.00 W/m2
03:34 27.0 °C 22.0 °C 1011.2 hPa ESE 10 km/h 16 km/h 72% 0.00 mm 0.00 W/m2
03:39 27.0 °C 22.0 °C 1011.2 hPa ESE 6 km/h 8 km/h 72% 0.00 mm 0.00 W/m2
03:44 27.0 °C 22.0 °C 1011.5 hPa ESE 5 km/h 12 km/h 72% 0.00 mm 0.00 W/m2
03:49 27.0 °C 21.0 °C 1011.5 hPa SE 5 km/h 12 km/h 71% 0.00 mm 0.00 W/m2
03:54 27.0 °C 21.0 °C 1011.2 hPa ESE 5 km/h 8 km/h 71% 0.00 mm 0.00 W/m2
03:59 27.0 °C 21.0 °C 1011.5 hPa East 9 km/h 12 km/h 71% 0.00 mm 0.00 W/m2
04:04 27.0 °C 21.0 °C 1011.5 hPa ESE 10 km/h 16 km/h 70% 0.00 mm 0.00 W/m2
04:09 27.0 °C 21.0 °C 1011.2 hPa ESE 9 km/h 12 km/h 70% 0.00 mm 0.00 W/m2
04:14 27.0 °C 21.0 °C 1011.2 hPa ESE 6 km/h 12 km/h 70% 0.00 mm 0.00 W/m2
04:19 27.0 °C 21.0 °C 1011.2 hPa ESE 7 km/h 12 km/h 70% 0.00 mm 0.00 W/m2
04:24 27.0 °C 21.0 °C 1011.2 hPa SE 7 km/h 8 km/h 71% 0.00 mm 0.00 W/m2
04:29 27.0 °C 21.0 °C 1011.2 hPa ESE 6 km/h 8 km/h 71% 0.00 mm 0.00 W/m2
04:34 27.0 °C 21.0 °C 1011.2 hPa East 8 km/h 8 km/h 70% 0.00 mm 0.00 W/m2
04:39 27.0 °C 21.0 °C 1011.2 hPa East 5 km/h 8 km/h 70% 0.00 mm 0.00 W/m2
04:44 27.0 °C 21.0 °C 1011.2 hPa SE 6 km/h 12 km/h 70% 0.00 mm 0.00 W/m2
04:49 27.0 °C 21.0 °C 1011.5 hPa ESE 8 km/h 8 km/h 70% 0.00 mm 0.00 W/m2
04:54 27.0 °C 21.0 °C 1011.5 hPa SE 8 km/h 12 km/h 70% 0.00 mm 0.00 W/m2
04:59 27.0 °C 21.0 °C 1011.5 hPa ESE 5 km/h 8 km/h 70% 0.00 mm 0.00 W/m2
05:04 27.0 °C 21.0 °C 1011.5 hPa ENE 3 km/h 4 km/h 70% 0.00 mm 0.00 W/m2
05:09 27.0 °C 21.0 °C 1011.5 hPa NNE 4 km/h 8 km/h 70% 0.00 mm 0.00 W/m2
05:14 27.0 °C 21.0 °C 1011.9 hPa NNW 1 km/h 4 km/h 71% 0.00 mm 0.00 W/m2
05:19 27.0 °C 21.0 °C 1011.9 hPa NE 3 km/h 4 km/h 71% 0.00 mm 0.00 W/m2
05:24 27.0 °C 21.0 °C 1011.9 hPa NE 6 km/h 8 km/h 71% 0.00 mm 0.00 W/m2
05:29 27.0 °C 21.0 °C 1012.2 hPa ENE 5 km/h 8 km/h 71% 0.00 mm 0.00 W/m2
05:34 27.0 °C 21.0 °C 1011.9 hPa NNE 5 km/h 8 km/h 71% 0.00 mm 0.00 W/m2
05:39 27.0 °C 21.0 °C 1011.9 hPa NNE 4 km/h 4 km/h 71% 0.00 mm 0.00 W/m2
05:44 27.0 °C 21.0 °C 1012.2 hPa NNE 5 km/h 8 km/h 72% 0.00 mm 0.00 W/m2
05:49 27.0 °C 21.0 °C 1011.9 hPa NNE 3 km/h 8 km/h 72% 0.00 mm 0.00 W/m2
05:54 26.0 °C 21.0 °C 1011.9 hPa NNE 5 km/h 8 km/h 72% 0.00 mm 0.00 W/m2
05:59 26.0 °C 21.0 °C 1012.2 hPa NNE 4 km/h 4 km/h 72% 0.00 mm 0.00 W/m2
06:04 26.0 °C 21.0 °C 1012.2 hPa Calm     73% 0.00 mm 0.84 W/m2
06:09 26.0 °C 21.0 °C 1012.2 hPa Calm     73% 0.00 mm 4.09 W/m2
06:14 26.0 °C 21.0 °C 1012.2 hPa Calm     74% 0.00 mm 7.39 W/m2
06:19 26.0 °C 21.0 °C 1012.2 hPa Calm     74% 0.00 mm 11.63 W/m2
06:24 26.0 °C 21.0 °C 1012.2 hPa Calm     74% 0.00 mm 19.20 W/m2
06:29 26.0 °C 21.0 °C 1012.5 hPa Calm     73% 0.00 mm 23.09 W/m2
06:34 26.0 °C 21.0 °C 1012.5 hPa Calm     73% 0.00 mm 26.82 W/m2
06:39 27.0 °C 21.0 °C 1012.9 hPa Calm   4 km/h 73% 0.00 mm 30.50 W/m2
06:44 27.0 °C 21.0 °C 1012.9 hPa ESE 5 km/h 8 km/h 73% 0.00 mm 32.46 W/m2
06:49 27.0 °C 21.0 °C 1012.9 hPa East 1 km/h 4 km/h 72% 0.00 mm 35.61 W/m2
06:54 27.0 °C 22.0 °C 1012.9 hPa ESE 5 km/h 8 km/h 71% 0.00 mm 38.65 W/m2
06:59 28.0 °C 22.0 °C 1013.2 hPa SE 4 km/h 4 km/h 70% 0.00 mm 115.31 W/m2
07:04 28.0 °C 22.0 °C 1013.2 hPa ESE 8 km/h 12 km/h 70% 0.00 mm 125.12 W/m2
07:09 29.0 °C 22.0 °C 1013.2 hPa SE 5 km/h 8 km/h 69% 0.00 mm 135.49 W/m2
07:14 29.0 °C 22.0 °C 1013.6 hPa ESE 4 km/h 12 km/h 67% 0.00 mm 144.57 W/m2
07:19 29.0 °C 22.0 °C 1013.2 hPa ESE 6 km/h 12 km/h 67% 0.00 mm 154.63 W/m2
07:24 29.0 °C 22.0 °C 1013.2 hPa ESE 9 km/h 12 km/h 66% 0.00 mm 163.80 W/m2
07:29 30.0 °C 22.0 °C 1013.6 hPa East 10 km/h 16 km/h 66% 0.00 mm 174.57 W/m2
07:34 30.0 °C 23.0 °C 1013.6 hPa East 9 km/h 12 km/h 65% 0.00 mm 181.81 W/m2
07:39 30.0 °C 23.0 °C 1013.6 hPa ENE 7 km/h 8 km/h 65% 0.00 mm 191.94 W/m2
07:44 30.0 °C 23.0 °C 1013.6 hPa East 5 km/h 8 km/h 65% 0.00 mm 208.41 W/m2
07:49 30.0 °C 23.0 °C 1013.6 hPa ESE 8 km/h 12 km/h 63% 0.00 mm 216.14 W/m2
07:54 31.0 °C 23.0 °C 1013.6 hPa ENE 13 km/h 20 km/h 63% 0.00 mm 225.90 W/m2
07:59 31.0 °C 23.0 °C 1013.6 hPa ENE 9 km/h 12 km/h 63% 0.00 mm 233.93 W/m2
08:04 31.0 °C 23.0 °C 1013.6 hPa ENE 10 km/h 20 km/h 63% 0.00 mm 246.40 W/m2
08:09 31.0 °C 23.0 °C 1013.6 hPa ESE 14 km/h 16 km/h 62% 0.00 mm 252.01 W/m2
08:14 31.0 °C 23.0 °C 1013.6 hPa East 5 km/h 8 km/h 62% 0.00 mm 258.88 W/m2
08:19 31.0 °C 23.0 °C 1013.6 hPa East 8 km/h 12 km/h 61% 0.00 mm 269.16 W/m2
08:24 31.0 °C 23.0 °C 1013.6 hPa SSE 8 km/h 12 km/h 61% 0.00 mm 279.36 W/m2
08:29 32.0 °C 23.0 °C 1013.9 hPa NE 10 km/h 16 km/h 60% 0.00 mm 293.99 W/m2
08:34 31.0 °C 22.0 °C 1013.9 hPa NE 10 km/h 12 km/h 60% 0.00 mm 296.54 W/m2
08:39 32.0 °C 23.0 °C 1013.9 hPa ESE 10 km/h 12 km/h 59% 0.00 mm 309.97 W/m2
08:44 32.0 °C 23.0 °C 1013.9 hPa ESE 13 km/h 24 km/h 58% 0.00 mm 312.44 W/m2
08:49 32.0 °C 22.0 °C 1013.9 hPa NW 13 km/h 16 km/h 58% 0.00 mm 321.13 W/m2
08:54 32.0 °C 22.0 °C 1014.2 hPa ENE 18 km/h 20 km/h 59% 0.00 mm 326.14 W/m2
08:59 32.0 °C 22.0 °C 1013.9 hPa ENE 10 km/h 16 km/h 59% 0.00 mm 333.07 W/m2
09:04 32.0 °C 23.0 °C 1014.2 hPa ESE 9 km/h 12 km/h 58% 0.00 mm 344.25 W/m2
09:09 32.0 °C 22.0 °C 1014.2 hPa SE 9 km/h 16 km/h 57% 0.00 mm 356.19 W/m2
09:14 32.0 °C 23.0 °C 1014.2 hPa NE 10 km/h 12 km/h 58% 0.00 mm 351.64 W/m2
09:19 32.0 °C 23.0 °C 1014.2 hPa ENE 14 km/h 16 km/h 58% 0.00 mm 363.06 W/m2
09:24 32.0 °C 23.0 °C 1014.2 hPa ESE 15 km/h 20 km/h 58% 0.00 mm 391.96 W/m2
09:29 32.0 °C 23.0 °C 1014.2 hPa NNE 18 km/h 24 km/h 58% 0.00 mm 398.13 W/m2
09:34 33.0 °C 23.0 °C 1014.2 hPa East 10 km/h 12 km/h 57% 0.00 mm 409.33 W/m2
09:39 33.0 °C 23.0 °C 1014.2 hPa East 17 km/h 24 km/h 56% 0.00 mm 418.09 W/m2
09:44 33.0 °C 23.0 °C 1014.2 hPa East 24 km/h 28 km/h 55% 0.00 mm 387.97 W/m2
09:49 33.0 °C 23.0 °C 1014.2 hPa ESE 19 km/h 20 km/h 56% 0.00 mm 386.38 W/m2
09:54 33.0 °C 23.0 °C 1014.2 hPa East 15 km/h 20 km/h 56% 0.00 mm 410.63 W/m2
09:59 33.0 °C 23.0 °C 1014.2 hPa East 12 km/h 16 km/h 56% 0.00 mm 419.83 W/m2
10:04 33.0 °C 23.0 °C 1014.2 hPa East 12 km/h 16 km/h 56% 0.00 mm 421.05 W/m2
10:09 33.0 °C 23.0 °C 1014.2 hPa ENE 10 km/h 12 km/h 56% 0.00 mm 417.16 W/m2
10:14 33.0 °C 23.0 °C 1013.9 hPa ESE 18 km/h 24 km/h 55% 0.00 mm 427.49 W/m2
10:19 34.0 °C 23.0 °C 1013.9 hPa SSE 15 km/h 20 km/h 55% 0.00 mm 430.35 W/m2
10:24 34.0 °C 23.0 °C 1014.2 hPa SE 14 km/h 16 km/h 55% 0.00 mm 442.90 W/m2
10:29 34.0 °C 23.0 °C 1013.9 hPa ENE 14 km/h 20 km/h 54% 0.00 mm 435.34 W/m2
10:34 34.0 °C 23.0 °C 1013.9 hPa East 16 km/h 20 km/h 54% 0.00 mm 447.23 W/m2
10:39 34.0 °C 23.0 °C 1013.9 hPa East 11 km/h 16 km/h 54% 0.00 mm 458.66 W/m2
10:44 34.0 °C 23.0 °C 1013.9 hPa ENE 13 km/h 20 km/h 54% 0.00 mm 465.88 W/m2
10:49 34.0 °C 23.0 °C 1013.9 hPa East 10 km/h 16 km/h 55% 0.00 mm 474.07 W/m2
10:54 34.0 °C 23.0 °C 1013.9 hPa NE 13 km/h 20 km/h 54% 0.00 mm 458.36 W/m2
10:59 34.0 °C 23.0 °C 1013.9 hPa NE 17 km/h 24 km/h 54% 0.00 mm 478.21 W/m2
11:04 34.0 °C 23.0 °C 1013.6 hPa East 12 km/h 16 km/h 53% 0.00 mm 496.53 W/m2
11:09 34.0 °C 23.0 °C 1013.6 hPa SSE 13 km/h 20 km/h 53% 0.00 mm 476.96 W/m2
11:14 34.0 °C 23.0 °C 1013.6 hPa ENE 12 km/h 16 km/h 53% 0.00 mm 480.58 W/m2
11:19 34.0 °C 23.0 °C 1013.6 hPa South 9 km/h 12 km/h 53% 0.00 mm 481.34 W/m2
11:24 34.0 °C 23.0 °C 1013.6 hPa ENE 32 km/h 36 km/h 55% 0.00 mm 479.26 W/m2
11:29 34.0 °C 23.0 °C 1013.6 hPa East 9 km/h 16 km/h 54% 0.00 mm 483.74 W/m2
11:34 35.0 °C 23.0 °C 1013.6 hPa North 13 km/h 16 km/h 53% 0.00 mm 522.37 W/m2
11:39 35.0 °C 23.0 °C 1013.2 hPa ESE 22 km/h 24 km/h 52% 0.00 mm 527.58 W/m2
11:44 34.0 °C 23.0 °C 1013.6 hPa NE 14 km/h 20 km/h 53% 0.00 mm 514.47 W/m2
11:49 33.0 °C 23.0 °C 1013.2 hPa ENE 13 km/h 16 km/h 55% 0.00 mm 527.97 W/m2
11:54 34.0 °C 23.0 °C 1013.2 hPa East 15 km/h 20 km/h 55% 0.00 mm 560.93 W/m2
11:59 34.0 °C 23.0 °C 1013.2 hPa ESE 15 km/h 20 km/h 54% 0.00 mm 547.99 W/m2
12:04 34.0 °C 23.0 °C 1013.2 hPa ESE 11 km/h 16 km/h 54% 0.00 mm 596.29 W/m2
12:09 34.0 °C 23.0 °C 1012.9 hPa ESE 17 km/h 24 km/h 54% 0.00 mm 559.51 W/m2
12:14 35.0 °C 23.0 °C 1012.9 hPa ESE 16 km/h 24 km/h 53% 0.00 mm 503.53 W/m2
12:19 35.0 °C 24.0 °C 1012.5 hPa SE 15 km/h 20 km/h 53% 0.00 mm 535.78 W/m2
12:24 35.0 °C 23.0 °C 1012.5 hPa East 18 km/h 24 km/h 53% 0.00 mm 531.18 W/m2
12:29 35.0 °C 23.0 °C 1012.5 hPa East 14 km/h 24 km/h 52% 0.00 mm 526.80 W/m2
12:34 34.0 °C 23.0 °C 1012.5 hPa ENE 13 km/h 16 km/h 52% 0.00 mm 519.36 W/m2
12:39 34.0 °C 23.0 °C 1012.2 hPa ESE 15 km/h 16 km/h 52% 0.00 mm 510.21 W/m2
12:44 35.0 °C 23.0 °C 1012.2 hPa East 14 km/h 16 km/h 53% 0.00 mm 512.17 W/m2
12:49 35.0 °C 23.0 °C 1011.9 hPa NNE 10 km/h 16 km/h 51% 0.00 mm 515.32 W/m2
12:54 35.0 °C 23.0 °C 1011.9 hPa SE 12 km/h 16 km/h 52% 0.00 mm 525.40 W/m2
12:59 35.0 °C 23.0 °C 1011.9 hPa East 12 km/h 16 km/h 51% 0.00 mm 534.21 W/m2
13:04 35.0 °C 23.0 °C 1011.9 hPa North 9 km/h 16 km/h 51% 0.00 mm 497.12 W/m2
13:09 35.0 °C 23.0 °C 1011.9 hPa ENE 23 km/h 28 km/h 51% 0.00 mm 519.19 W/m2
13:14 35.0 °C 23.0 °C 1011.5 hPa ESE 18 km/h 20 km/h 51% 0.00 mm 531.55 W/m2
13:19 35.0 °C 23.0 °C 1011.5 hPa NNE 12 km/h 16 km/h 51% 0.00 mm 493.08 W/m2
13:24 35.0 °C 23.0 °C 1011.2 hPa ESE 19 km/h 24 km/h 50% 0.00 mm 490.98 W/m2
13:29 35.0 °C 23.0 °C 1011.2 hPa ENE 14 km/h 20 km/h 51% 0.00 mm 502.60 W/m2
13:34 35.0 °C 23.0 °C 1011.2 hPa NE 10 km/h 16 km/h 50% 0.00 mm 519.78 W/m2
13:39 35.0 °C 23.0 °C 1011.2 hPa ESE 15 km/h 20 km/h 50% 0.00 mm 495.68 W/m2
13:44 35.0 °C 23.0 °C 1011.2 hPa ESE 19 km/h 24 km/h 50% 0.00 mm 502.94 W/m2
13:49 36.0 °C 23.0 °C 1011.2 hPa ESE 8 km/h 12 km/h 50% 0.00 mm 497.88 W/m2
13:54 36.0 °C 23.0 °C 1011.2 hPa South 23 km/h 28 km/h 49% 0.00 mm 477.40 W/m2
13:59 35.0 °C 23.0 °C 1010.8 hPa ESE 15 km/h 24 km/h 49% 0.00 mm 485.65 W/m2
14:04 36.0 °C 23.0 °C 1010.8 hPa NNE 10 km/h 20 km/h 49% 0.00 mm 502.09 W/m2
14:09 36.0 °C 23.0 °C 1010.8 hPa East 15 km/h 24 km/h 49% 0.00 mm 480.02 W/m2
14:14 36.0 °C 23.0 °C 1010.5 hPa ESE 20 km/h 24 km/h 48% 0.00 mm 478.43 W/m2
14:19 36.0 °C 23.0 °C 1010.5 hPa ESE 18 km/h 20 km/h 49% 0.00 mm 476.84 W/m2
14:24 36.0 °C 23.0 °C 1010.8 hPa SE 15 km/h 24 km/h 47% 0.00 mm 467.25 W/m2
14:29 36.0 °C 23.0 °C 1010.5 hPa ENE 15 km/h 20 km/h 48% 0.00 mm 465.46 W/m2
14:34 36.0 °C 23.0 °C 1010.5 hPa ESE 18 km/h 28 km/h 48% 0.00 mm 462.72 W/m2
14:39 35.0 °C 23.0 °C 1010.5 hPa ESE 28 km/h 40 km/h 48% 0.00 mm 458.85 W/m2
14:44 35.0 °C 23.0 °C 1010.5 hPa East 24 km/h 32 km/h 48% 0.00 mm 456.02 W/m2
14:49 35.0 °C 22.0 °C 1010.5 hPa ESE 33 km/h 40 km/h 48% 0.00 mm 446.16 W/m2
14:54 35.0 °C 22.0 °C 1010.5 hPa SE 15 km/h 24 km/h 48% 0.00 mm 443.59 W/m2
14:59 35.0 °C 22.0 °C 1010.5 hPa ESE 25 km/h 32 km/h 47% 0.00 mm 443.22 W/m2
15:04 35.0 °C 22.0 °C 1010.5 hPa ESE 25 km/h 28 km/h 48% 0.00 mm 437.91 W/m2
15:09 35.0 °C 22.0 °C 1010.5 hPa ENE 18 km/h 24 km/h 47% 0.00 mm 432.26 W/m2
15:14 35.0 °C 22.0 °C 1010.5 hPa SE 19 km/h 20 km/h 47% 0.00 mm 428.34 W/m2
15:19 35.0 °C 22.0 °C 1010.5 hPa ESE 15 km/h 16 km/h 48% 0.00 mm 426.97 W/m2
15:24 35.0 °C 22.0 °C 1010.5 hPa SE 12 km/h 16 km/h 48% 0.00 mm 423.79 W/m2
15:29 35.0 °C 22.0 °C 1010.5 hPa SE 13 km/h 20 km/h 47% 0.00 mm 418.04 W/m2
15:34 35.0 °C 22.0 °C 1010.5 hPa ESE 18 km/h 24 km/h 48% 0.00 mm 415.08 W/m2
15:39 35.0 °C 22.0 °C 1010.5 hPa SSE 15 km/h 24 km/h 47% 0.00 mm 407.72 W/m2
15:44 35.0 °C 22.0 °C 1010.5 hPa SE 22 km/h 24 km/h 47% 0.00 mm 402.11 W/m2
15:49 35.0 °C 22.0 °C 1010.5 hPa SE 15 km/h 24 km/h 48% 0.00 mm 397.20 W/m2
15:54 35.0 °C 22.0 °C 1010.5 hPa East 15 km/h 28 km/h 47% 0.00 mm 391.06 W/m2
15:59 35.0 °C 21.0 °C 1010.5 hPa ESE 15 km/h 24 km/h 46% 0.00 mm 387.80 W/m2
16:04 34.0 °C 21.0 °C 1010.5 hPa ESE 17 km/h 24 km/h 47% 0.00 mm 382.59 W/m2
16:09 35.0 °C 22.0 °C 1010.5 hPa ESE 15 km/h 24 km/h 48% 0.00 mm 373.95 W/m2
16:14 34.0 °C 21.0 °C 1010.5 hPa ESE 31 km/h 40 km/h 48% 0.00 mm 365.22 W/m2
16:19 34.0 °C 21.0 °C 1010.5 hPa SE 17 km/h 24 km/h 47% 0.00 mm 358.24 W/m2
16:24 34.0 °C 21.0 °C 1010.5 hPa SE 23 km/h 28 km/h 48% 0.00 mm 354.31 W/m2
16:29 34.0 °C 21.0 °C 1010.5 hPa East 14 km/h 20 km/h 48% 0.00 mm 344.03 W/m2
16:34 34.0 °C 21.0 °C 1010.5 hPa ESE 10 km/h 16 km/h 48% 0.00 mm 338.60 W/m2
16:39 34.0 °C 22.0 °C 1010.5 hPa SE 10 km/h 16 km/h 49% 0.00 mm 328.96 W/m2
16:44 34.0 °C 22.0 °C 1010.5 hPa East 15 km/h 24 km/h 49% 0.00 mm 319.37 W/m2
16:49 34.0 °C 22.0 °C 1010.5 hPa ESE 12 km/h 16 km/h 49% 0.00 mm 303.17 W/m2
16:54 34.0 °C 22.0 °C 1010.8 hPa East 12 km/h 16 km/h 50% 0.00 mm 291.11 W/m2
16:59 34.0 °C 22.0 °C 1010.8 hPa East 12 km/h 16 km/h 50% 0.00 mm 281.74 W/m2
17:04 34.0 °C 22.0 °C 1010.5 hPa East 13 km/h 16 km/h 50% 0.00 mm 267.62 W/m2
17:09 33.0 °C 21.0 °C 1010.8 hPa SE 13 km/h 20 km/h 51% 0.00 mm 251.30 W/m2
17:14 33.0 °C 21.0 °C 1010.8 hPa SE 12 km/h 16 km/h 51% 0.00 mm 47.12 W/m2
17:19 33.0 °C 21.0 °C 1011.2 hPa East 12 km/h 16 km/h 50% 0.00 mm 43.03 W/m2
17:24 33.0 °C 21.0 °C 1010.8 hPa SE 15 km/h 16 km/h 51% 0.00 mm 40.29 W/m2
17:29 32.0 °C 21.0 °C 1011.2 hPa ESE 11 km/h 16 km/h 53% 0.00 mm 36.96 W/m2
17:34 32.0 °C 21.0 °C 1010.8 hPa East 13 km/h 20 km/h 54% 0.00 mm 33.25 W/m2
17:39 32.0 °C 21.0 °C 1011.2 hPa SE 12 km/h 16 km/h 54% 0.00 mm 29.69 W/m2
17:44 32.0 °C 22.0 °C 1011.2 hPa ESE 12 km/h 20 km/h 55% 0.00 mm 26.12 W/m2
17:49 32.0 °C 21.0 °C 1011.2 hPa ESE 14 km/h 20 km/h 55% 0.00 mm 22.09 W/m2
17:54 31.0 °C 22.0 °C 1011.2 hPa ESE 12 km/h 16 km/h 56% 0.00 mm 17.63 W/m2
17:59 31.0 °C 21.0 °C 1011.5 hPa SSE 14 km/h 16 km/h 56% 0.00 mm 11.43 W/m2
18:04 31.0 °C 22.0 °C 1011.2 hPa East 13 km/h 20 km/h 57% 0.00 mm 6.87 W/m2
18:09 31.0 °C 22.0 °C 1011.5 hPa SE 7 km/h 12 km/h 57% 0.00 mm 3.18 W/m2
18:14 31.0 °C 21.0 °C 1011.5 hPa SE 10 km/h 16 km/h 57% 0.00 mm 0.15 W/m2
18:19 31.0 °C 21.0 °C 1011.5 hPa ESE 10 km/h 16 km/h 57% 0.00 mm 0.00 W/m2
18:24 31.0 °C 22.0 °C 1011.5 hPa ESE 10 km/h 12 km/h 58% 0.00 mm 0.00 W/m2
18:29 31.0 °C 22.0 °C 1011.5 hPa SE 9 km/h 12 km/h 59% 0.00 mm 0.00 W/m2
18:34 31.0 °C 22.0 °C 1011.5 hPa SE 6 km/h 8 km/h 59% 0.00 mm 0.00 W/m2
18:39 31.0 °C 22.0 °C 1011.5 hPa ESE 4 km/h 4 km/h 59% 0.00 mm 0.00 W/m2
18:44 31.0 °C 22.0 °C 1011.5 hPa East 9 km/h 12 km/h 60% 0.00 mm 0.00 W/m2
18:49 31.0 °C 22.0 °C 1011.5 hPa East 9 km/h 12 km/h 60% 0.00 mm 0.00 W/m2
18:54 30.0 °C 22.0 °C 1011.9 hPa SSW 8 km/h 12 km/h 61% 0.00 mm 0.00 W/m2
18:59 30.0 °C 22.0 °C 1011.9 hPa East 10 km/h 16 km/h 61% 0.00 mm 0.00 W/m2
19:04 30.0 °C 22.0 °C 1011.9 hPa ESE 8 km/h 12 km/h 61% 0.00 mm 0.00 W/m2
19:09 30.0 °C 22.0 °C 1011.9 hPa SSW 4 km/h 8 km/h 62% 0.00 mm 0.00 W/m2
19:14 30.0 °C 22.0 °C 1011.9 hPa ESE 9 km/h 12 km/h 62% 0.00 mm 0.00 W/m2
19:19 30.0 °C 22.0 °C 1012.2 hPa ENE 10 km/h 12 km/h 62% 0.00 mm 0.00 W/m2
19:24 30.0 °C 22.0 °C 1012.2 hPa SSE 5 km/h 8 km/h 62% 0.00 mm 0.00 W/m2
19:29 30.0 °C 22.0 °C 1012.2 hPa East 3 km/h 4 km/h 63% 0.00 mm 0.00 W/m2
19:34 30.0 °C 22.0 °C 1012.2 hPa East 6 km/h 8 km/h 63% 0.00 mm 0.00 W/m2
19:39 30.0 °C 22.0 °C 1012.2 hPa NE 6 km/h 8 km/h 63% 0.00 mm 0.00 W/m2
19:44 30.0 °C 22.0 °C 1012.5 hPa NNE 3 km/h 4 km/h 63% 0.00 mm 0.00 W/m2
19:49 30.0 °C 22.0 °C 1012.5 hPa SE 6 km/h 8 km/h 64% 0.00 mm 0.00 W/m2
19:54 30.0 °C 22.0 °C 1012.5 hPa West 4 km/h 12 km/h 64% 0.00 mm 0.00 W/m2
19:59 30.0 °C 22.0 °C 1012.5 hPa East 6 km/h 8 km/h 64% 0.00 mm 0.00 W/m2
20:04 30.0 °C 22.0 °C 1012.5 hPa SE 9 km/h 12 km/h 64% 0.00 mm 0.00 W/m2
20:09 30.0 °C 22.0 °C 1012.5 hPa ESE 7 km/h 12 km/h 64% 0.00 mm 0.00 W/m2
20:14 29.0 °C 22.0 °C 1012.9 hPa ESE 6 km/h 12 km/h 64% 0.00 mm 0.00 W/m2
20:19 29.0 °C 22.0 °C 1012.9 hPa ESE 8 km/h 8 km/h 65% 0.00 mm 0.00 W/m2
20:24 29.0 °C 22.0 °C 1012.9 hPa East 10 km/h 12 km/h 65% 0.00 mm 0.00 W/m2
20:29 29.0 °C 22.0 °C 1012.9 hPa East 7 km/h 12 km/h 65% 0.00 mm 0.00 W/m2
20:34 29.0 °C 22.0 °C 1012.9 hPa East 8 km/h 12 km/h 65% 0.00 mm 0.00 W/m2
20:39 29.0 °C 22.0 °C 1012.9 hPa East 6 km/h 8 km/h 65% 0.00 mm 0.00 W/m2
20:44 29.0 °C 22.0 °C 1012.9 hPa ESE 5 km/h 8 km/h 66% 0.00 mm 0.00 W/m2
20:49 29.0 °C 22.0 °C 1012.9 hPa ESE 4 km/h 8 km/h 66% 0.00 mm 0.00 W/m2
20:54 29.0 °C 22.0 °C 1013.2 hPa West 1 km/h 4 km/h 66% 0.00 mm 0.00 W/m2
20:59 29.0 °C 22.0 °C 1012.9 hPa East 5 km/h 8 km/h 66% 0.00 mm 0.00 W/m2
21:04 29.0 °C 22.0 °C 1013.2 hPa East 5 km/h 8 km/h 67% 0.00 mm 0.00 W/m2
21:09 29.0 °C 22.0 °C 1013.2 hPa East 5 km/h 8 km/h 66% 0.00 mm 0.00 W/m2
21:14 29.0 °C 22.0 °C 1013.6 hPa ENE 5 km/h 8 km/h 66% 0.00 mm 0.00 W/m2
21:19 29.0 °C 22.0 °C 1013.6 hPa East 5 km/h 8 km/h 66% 0.00 mm 0.00 W/m2
21:24 29.0 °C 22.0 °C 1013.2 hPa East 3 km/h 4 km/h 67% 0.00 mm 0.00 W/m2
21:29 29.0 °C 22.0 °C 1013.6 hPa East 4 km/h 8 km/h 67% 0.00 mm 0.00 W/m2
21:34 29.0 °C 22.0 °C 1013.6 hPa ESE 8 km/h 12 km/h 67% 0.00 mm 0.00 W/m2
21:39 29.0 °C 22.0 °C 1013.2 hPa ESE 1 km/h 4 km/h 67% 0.00 mm 0.00 W/m2
21:44 29.0 °C 22.0 °C 1013.6 hPa ENE 5 km/h 8 km/h 68% 0.00 mm 0.00 W/m2
21:49 29.0 °C 22.0 °C 1013.6 hPa East 7 km/h 8 km/h 68% 0.00 mm 0.00 W/m2
21:54 29.0 °C 22.0 °C 1013.6 hPa ESE 5 km/h 8 km/h 68% 0.00 mm 0.00 W/m2
21:59 29.0 °C 22.0 °C 1013.6 hPa East 5 km/h 8 km/h 68% 0.00 mm 0.00 W/m2
22:04 29.0 °C 22.0 °C 1013.6 hPa ESE 3 km/h 4 km/h 68% 0.00 mm 0.00 W/m2
22:09 29.0 °C 22.0 °C 1013.6 hPa SE 5 km/h 8 km/h 68% 0.00 mm 0.00 W/m2
22:14 29.0 °C 22.0 °C 1013.6 hPa SSE 4 km/h 8 km/h 68% 0.00 mm 0.00 W/m2
22:19 29.0 °C 23.0 °C 1013.2 hPa ESE 5 km/h 8 km/h 69% 0.00 mm 0.00 W/m2
22:24 29.0 °C 23.0 °C 1013.2 hPa NE 5 km/h 8 km/h 69% 0.00 mm 0.00 W/m2
22:29 29.0 °C 22.0 °C 1013.6 hPa East 5 km/h 8 km/h 69% 0.00 mm 0.00 W/m2
22:34 29.0 °C 23.0 °C 1013.6 hPa South 4 km/h 8 km/h 69% 0.00 mm 0.00 W/m2
22:39 29.0 °C 23.0 °C 1013.6 hPa ENE 6 km/h 8 km/h 69% 0.00 mm 0.00 W/m2
22:44 29.0 °C 23.0 °C 1013.6 hPa ESE 9 km/h 12 km/h 69% 0.00 mm 0.00 W/m2
22:49 29.0 °C 22.0 °C 1013.2 hPa East 6 km/h 8 km/h 69% 0.00 mm 0.00 W/m2
22:54 29.0 °C 22.0 °C 1013.6 hPa ESE 6 km/h 8 km/h 69% 0.00 mm 0.00 W/m2
22:59 29.0 °C 23.0 °C 1013.6 hPa ESE 8 km/h 12 km/h 70% 0.00 mm 0.00 W/m2
23:04 29.0 °C 23.0 °C 1013.6 hPa SE 4 km/h 8 km/h 70% 0.00 mm 0.00 W/m2
23:09 29.0 °C 23.0 °C 1013.6 hPa SE 5 km/h 8 km/h 70% 0.00 mm 0.00 W/m2
23:14 29.0 °C 22.0 °C 1013.6 hPa ESE 5 km/h 8 km/h 70% 0.00 mm 0.00 W/m2
23:19 28.0 °C 22.0 °C 1013.6 hPa ESE 5 km/h 8 km/h 70% 0.00 mm 0.00 W/m2
23:24 29.0 °C 23.0 °C 1013.2 hPa SSE 3 km/h 4 km/h 70% 0.00 mm 0.00 W/m2
23:29 28.0 °C 22.0 °C 1013.6 hPa SSE 1 km/h 4 km/h 70% 0.00 mm 0.00 W/m2
23:34 28.0 °C 22.0 °C 1013.6 hPa ESE 1 km/h 4 km/h 70% 0.00 mm 0.00 W/m2
23:39 28.0 °C 23.0 °C 1013.2 hPa ESE 4 km/h 4 km/h 71% 0.00 mm 0.00 W/m2
23:44 28.0 °C 23.0 °C 1013.2 hPa ESE 4 km/h 4 km/h 71% 0.00 mm 0.00 W/m2
23:49 28.0 °C 23.0 °C 1013.2 hPa East 3 km/h 4 km/h 71% 0.00 mm 0.00 W/m2
23:54 28.0 °C 23.0 °C 1013.2 hPa ESE 1 km/h 4 km/h 71% 0.00 mm 0.00 W/m2
23:59 28.0 °C 22.0 °C 1013.2 hPa Calm   4 km/h 71% 0.00 mm 0.00 W/m2
PIMOHWEATHER Philippines
Compliments of Weather Underground - 2 mb